sensor_id;sensor_type;location;lat;lon;timestamp;temperature;humidity
23251;DHT22;11794;49.730;10.088;2022-10-17T00:00:25;12.70;99.90
23251;DHT22;11794;49.730;10.088;2022-10-17T00:02:50;12.60;99.90
23251;DHT22;11794;49.730;10.088;2022-10-17T00:05:16;12.60;99.90
23251;DHT22;11794;49.730;10.088;2022-10-17T00:07:41;12.60;99.90
23251;DHT22;11794;49.730;10.088;2022-10-17T00:10:07;12.60;99.90
23251;DHT22;11794;49.730;10.088;2022-10-17T00:12:34;12.60;99.90
23251;DHT22;11794;49.730;10.088;2022-10-17T00:15:02;12.70;99.90
23251;DHT22;11794;49.730;10.088;2022-10-17T00:17:28;12.60;99.90
23251;DHT22;11794;49.730;10.088;2022-10-17T00:19:54;12.60;99.90
23251;DHT22;11794;49.730;10.088;2022-10-17T00:22:20;12.50;99.90
23251;DHT22;11794;49.730;10.088;2022-10-17T00:24:45;12.50;99.90
23251;DHT22;11794;49.730;10.088;2022-10-17T00:27:10;12.50;99.90
23251;DHT22;11794;49.730;10.088;2022-10-17T00:29:36;12.50;99.90
23251;DHT22;11794;49.730;10.088;2022-10-17T00:32:02;12.40;99.90
23251;DHT22;11794;49.730;10.088;2022-10-17T00:34:28;12.30;99.90
23251;DHT22;11794;49.730;10.088;2022-10-17T00:36:53;12.30;99.90
23251;DHT22;11794;49.730;10.088;2022-10-17T00:39:19;12.30;99.90
23251;DHT22;11794;49.730;10.088;2022-10-17T00:41:45;12.30;99.90
23251;DHT22;11794;49.730;10.088;2022-10-17T00:47:00;12.20;99.90
23251;DHT22;11794;49.730;10.088;2022-10-17T00:49:30;12.20;99.90
23251;DHT22;11794;49.730;10.088;2022-10-17T00:51:59;12.20;99.90
23251;DHT22;11794;49.730;10.088;2022-10-17T00:54:35;12.20;99.90
23251;DHT22;11794;49.730;10.088;2022-10-17T00:57:02;12.20;99.90
23251;DHT22;11794;49.730;10.088;2022-10-17T00:59:29;12.10;99.90
23251;DHT22;11794;49.730;10.088;2022-10-17T01:02:05;12.10;99.90
23251;DHT22;11794;49.730;10.088;2022-10-17T01:04:31;12.10;99.90
23251;DHT22;11794;49.730;10.088;2022-10-17T01:06:56;12.10;99.90
23251;DHT22;11794;49.730;10.088;2022-10-17T01:09:23;12.10;99.90
23251;DHT22;11794;49.730;10.088;2022-10-17T01:14:57;12.00;99.90
23251;DHT22;11794;49.730;10.088;2022-10-17T01:17:34;12.00;99.90
23251;DHT22;11794;49.730;10.088;2022-10-17T01:23:09;11.90;99.90
23251;DHT22;11794;49.730;10.088;2022-10-17T01:31:18;11.90;99.90
23251;DHT22;11794;49.730;10.088;2022-10-17T01:39:08;11.80;99.90
23251;DHT22;11794;49.730;10.088;2022-10-17T01:42:02;11.80;99.90
23251;DHT22;11794;49.730;10.088;2022-10-17T01:44:37;11.80;99.90
23251;DHT22;11794;49.730;10.088;2022-10-17T01:47:08;11.80;99.90
23251;DHT22;11794;49.730;10.088;2022-10-17T01:49:37;11.70;99.90
23251;DHT22;11794;49.730;10.088;2022-10-17T01:52:11;11.70;99.90
23251;DHT22;11794;49.730;10.088;2022-10-17T01:54:44;11.70;99.90
23251;DHT22;11794;49.730;10.088;2022-10-17T01:59:51;11.60;99.90
23251;DHT22;11794;49.730;10.088;2022-10-17T02:02:18;11.60;99.90
23251;DHT22;11794;49.730;10.088;2022-10-17T02:04:46;11.60;99.90
23251;DHT22;11794;49.730;10.088;2022-10-17T02:07:12;11.60;99.90
23251;DHT22;11794;49.730;10.088;2022-10-17T02:09:38;11.60;99.90
23251;DHT22;11794;49.730;10.088;2022-10-17T02:12:15;11.60;99.90
23251;DHT22;11794;49.730;10.088;2022-10-17T02:17:56;11.50;99.90
23251;DHT22;11794;49.730;10.088;2022-10-17T02:20:42;11.50;99.90
23251;DHT22;11794;49.730;10.088;2022-10-17T02:23:26;11.50;99.90
23251;DHT22;11794;49.730;10.088;2022-10-17T02:26:22;11.60;99.90
23251;DHT22;11794;49.730;10.088;2022-10-17T02:31:30;11.70;99.90
23251;DHT22;11794;49.730;10.088;2022-10-17T02:34:00;11.70;99.90
23251;DHT22;11794;49.730;10.088;2022-10-17T02:36:34;11.70;99.90
23251;DHT22;11794;49.730;10.088;2022-10-17T02:39:02;11.70;99.90
23251;DHT22;11794;49.730;10.088;2022-10-17T02:41:30;11.70;99.90
23251;DHT22;11794;49.730;10.088;2022-10-17T02:43:55;11.70;99.90
23251;DHT22;11794;49.730;10.088;2022-10-17T02:46:22;11.70;99.90
23251;DHT22;11794;49.730;10.088;2022-10-17T02:49:02;11.70;99.90
23251;DHT22;11794;49.730;10.088;2022-10-17T02:51:39;11.60;99.90
23251;DHT22;11794;49.730;10.088;2022-10-17T02:54:18;11.60;99.90
23251;DHT22;11794;49.730;10.088;2022-10-17T02:56:59;11.50;99.90
23251;DHT22;11794;49.730;10.088;2022-10-17T02:59:28;11.50;99.90
23251;DHT22;11794;49.730;10.088;2022-10-17T03:01:54;11.40;99.90
23251;DHT22;11794;49.730;10.088;2022-10-17T03:04:20;11.30;99.90
23251;DHT22;11794;49.730;10.088;2022-10-17T03:06:47;11.30;99.90
23251;DHT22;11794;49.730;10.088;2022-10-17T03:09:14;11.30;99.90
23251;DHT22;11794;49.730;10.088;2022-10-17T03:11:40;11.30;99.90
23251;DHT22;11794;49.730;10.088;2022-10-17T03:14:06;11.30;99.90
23251;DHT22;11794;49.730;10.088;2022-10-17T03:16:31;11.20;99.90
23251;DHT22;11794;49.730;10.088;2022-10-17T03:18:57;11.20;99.90
23251;DHT22;11794;49.730;10.088;2022-10-17T03:21:22;11.10;99.90
23251;DHT22;11794;49.730;10.088;2022-10-17T03:23:48;11.00;99.90
23251;DHT22;11794;49.730;10.088;2022-10-17T03:26:13;11.00;99.90
23251;DHT22;11794;49.730;10.088;2022-10-17T03:28:39;11.00;99.90
23251;DHT22;11794;49.730;10.088;2022-10-17T03:31:09;11.00;99.90
23251;DHT22;11794;49.730;10.088;2022-10-17T03:33:36;11.00;99.90
23251;DHT22;11794;49.730;10.088;2022-10-17T03:36:10;11.00;99.90
23251;DHT22;11794;49.730;10.088;2022-10-17T03:38:36;11.00;99.90
23251;DHT22;11794;49.730;10.088;2022-10-17T03:41:02;11.00;99.90
23251;DHT22;11794;49.730;10.088;2022-10-17T03:43:28;11.00;99.90
23251;DHT22;11794;49.730;10.088;2022-10-17T03:45:55;11.10;99.90
23251;DHT22;11794;49.730;10.088;2022-10-17T03:48:20;11.10;99.90
23251;DHT22;11794;49.730;10.088;2022-10-17T03:50:46;11.00;99.90
23251;DHT22;11794;49.730;10.088;2022-10-17T03:53:11;11.00;99.90
23251;DHT22;11794;49.730;10.088;2022-10-17T03:55:37;11.00;99.90
23251;DHT22;11794;49.730;10.088;2022-10-17T03:58:02;11.00;99.90
23251;DHT22;11794;49.730;10.088;2022-10-17T04:00:28;11.00;99.90
23251;DHT22;11794;49.730;10.088;2022-10-17T04:02:53;11.00;99.90
23251;DHT22;11794;49.730;10.088;2022-10-17T04:05:19;11.00;99.90
23251;DHT22;11794;49.730;10.088;2022-10-17T04:07:44;11.00;99.90
23251;DHT22;11794;49.730;10.088;2022-10-17T04:10:10;11.00;99.90
23251;DHT22;11794;49.730;10.088;2022-10-17T04:12:35;11.00;99.90
23251;DHT22;11794;49.730;10.088;2022-10-17T04:15:01;11.00;99.90
23251;DHT22;11794;49.730;10.088;2022-10-17T04:17:29;11.00;99.90
23251;DHT22;11794;49.730;10.088;2022-10-17T04:19:55;10.90;99.90
23251;DHT22;11794;49.730;10.088;2022-10-17T04:22:20;10.90;99.90
23251;DHT22;11794;49.730;10.088;2022-10-17T04:24:46;10.90;99.90
23251;DHT22;11794;49.730;10.088;2022-10-17T04:27:12;10.90;99.90
23251;DHT22;11794;49.730;10.088;2022-10-17T04:29:37;10.90;99.90
23251;DHT22;11794;49.730;10.088;2022-10-17T04:32:03;10.90;99.90
23251;DHT22;11794;49.730;10.088;2022-10-17T04:34:29;11.00;99.90
23251;DHT22;11794;49.730;10.088;2022-10-17T04:36:54;11.00;99.90
23251;DHT22;11794;49.730;10.088;2022-10-17T04:39:20;10.90;99.90
23251;DHT22;11794;49.730;10.088;2022-10-17T04:41:45;10.90;99.90
23251;DHT22;11794;49.730;10.088;2022-10-17T04:44:11;10.90;99.90
23251;DHT22;11794;49.730;10.088;2022-10-17T04:46:36;10.90;99.90
23251;DHT22;11794;49.730;10.088;2022-10-17T04:49:02;10.80;99.90
23251;DHT22;11794;49.730;10.088;2022-10-17T04:51:28;10.80;99.90
23251;DHT22;11794;49.730;10.088;2022-10-17T04:53:53;10.80;99.90
23251;DHT22;11794;49.730;10.088;2022-10-17T04:56:21;10.80;99.90
23251;DHT22;11794;49.730;10.088;2022-10-17T04:58:47;10.80;99.90
23251;DHT22;11794;49.730;10.088;2022-10-17T05:01:15;10.70;99.90
23251;DHT22;11794;49.730;10.088;2022-10-17T05:03:41;10.80;99.90
23251;DHT22;11794;49.730;10.088;2022-10-17T05:06:13;10.80;99.90
23251;DHT22;11794;49.730;10.088;2022-10-17T05:08:39;10.80;99.90
23251;DHT22;11794;49.730;10.088;2022-10-17T05:11:12;10.70;99.90
23251;DHT22;11794;49.730;10.088;2022-10-17T05:13:39;10.70;99.90
23251;DHT22;11794;49.730;10.088;2022-10-17T05:16:04;10.70;99.90
23251;DHT22;11794;49.730;10.088;2022-10-17T05:18:30;10.70;99.90
23251;DHT22;11794;49.730;10.088;2022-10-17T05:20:55;10.70;99.90
23251;DHT22;11794;49.730;10.088;2022-10-17T05:23:21;10.70;99.90
23251;DHT22;11794;49.730;10.088;2022-10-17T05:25:47;10.60;99.90
23251;DHT22;11794;49.730;10.088;2022-10-17T05:28:17;10.60;99.90
23251;DHT22;11794;49.730;10.088;2022-10-17T05:30:43;10.60;99.90
23251;DHT22;11794;49.730;10.088;2022-10-17T05:33:08;10.50;99.90
23251;DHT22;11794;49.730;10.088;2022-10-17T05:35:34;10.60;99.90
23251;DHT22;11794;49.730;10.088;2022-10-17T05:38:00;10.60;99.90
23251;DHT22;11794;49.730;10.088;2022-10-17T05:40:26;10.70;99.90
23251;DHT22;11794;49.730;10.088;2022-10-17T05:42:51;10.70;99.90
23251;DHT22;11794;49.730;10.088;2022-10-17T05:45:17;10.70;99.90
23251;DHT22;11794;49.730;10.088;2022-10-17T05:47:43;10.60;99.90
23251;DHT22;11794;49.730;10.088;2022-10-17T05:50:09;10.60;99.90
23251;DHT22;11794;49.730;10.088;2022-10-17T05:52:34;10.60;99.90
23251;DHT22;11794;49.730;10.088;2022-10-17T05:55:00;10.60;99.90
23251;DHT22;11794;49.730;10.088;2022-10-17T05:57:26;10.60;99.90
23251;DHT22;11794;49.730;10.088;2022-10-17T05:59:51;10.70;99.90
23251;DHT22;11794;49.730;10.088;2022-10-17T06:02:17;10.70;99.90
23251;DHT22;11794;49.730;10.088;2022-10-17T06:04:42;10.70;99.90
23251;DHT22;11794;49.730;10.088;2022-10-17T06:07:11;10.70;99.90
23251;DHT22;11794;49.730;10.088;2022-10-17T06:09:37;10.70;99.90
23251;DHT22;11794;49.730;10.088;2022-10-17T06:12:02;10.70;99.90
23251;DHT22;11794;49.730;10.088;2022-10-17T06:14:28;10.80;99.90
23251;DHT22;11794;49.730;10.088;2022-10-17T06:16:54;10.90;99.90
23251;DHT22;11794;49.730;10.088;2022-10-17T06:19:19;10.90;99.90
23251;DHT22;11794;49.730;10.088;2022-10-17T06:21:51;11.00;99.90
23251;DHT22;11794;49.730;10.088;2022-10-17T06:24:17;11.10;99.90
23251;DHT22;11794;49.730;10.088;2022-10-17T06:26:43;11.10;99.90
23251;DHT22;11794;49.730;10.088;2022-10-17T06:29:09;11.20;99.90
23251;DHT22;11794;49.730;10.088;2022-10-17T06:31:34;11.20;99.90
23251;DHT22;11794;49.730;10.088;2022-10-17T06:34:00;11.30;99.90
23251;DHT22;11794;49.730;10.088;2022-10-17T06:36:26;11.40;99.90
23251;DHT22;11794;49.730;10.088;2022-10-17T06:38:51;11.40;99.90
23251;DHT22;11794;49.730;10.088;2022-10-17T06:41:17;11.40;99.90
23251;DHT22;11794;49.730;10.088;2022-10-17T06:43:44;11.60;99.90
23251;DHT22;11794;49.730;10.088;2022-10-17T06:46:14;11.80;99.90
23251;DHT22;11794;49.730;10.088;2022-10-17T06:48:41;12.20;99.90
23251;DHT22;11794;49.730;10.088;2022-10-17T06:51:06;12.50;99.90
23251;DHT22;11794;49.730;10.088;2022-10-17T06:53:34;12.70;99.90
23251;DHT22;11794;49.730;10.088;2022-10-17T06:56:00;12.80;99.90
23251;DHT22;11794;49.730;10.088;2022-10-17T06:58:35;12.90;99.90
23251;DHT22;11794;49.730;10.088;2022-10-17T07:01:07;13.00;99.90
23251;DHT22;11794;49.730;10.088;2022-10-17T07:03:33;13.00;99.90
23251;DHT22;11794;49.730;10.088;2022-10-17T07:05:58;13.10;99.90
23251;DHT22;11794;49.730;10.088;2022-10-17T07:08:25;13.20;99.90
23251;DHT22;11794;49.730;10.088;2022-10-17T07:10:51;13.30;99.90
23251;DHT22;11794;49.730;10.088;2022-10-17T07:13:17;13.50;99.90
23251;DHT22;11794;49.730;10.088;2022-10-17T07:15:43;13.70;99.90
23251;DHT22;11794;49.730;10.088;2022-10-17T07:18:09;13.90;99.90
23251;DHT22;11794;49.730;10.088;2022-10-17T07:20:35;14.20;99.90
23251;DHT22;11794;49.730;10.088;2022-10-17T07:23:01;14.40;99.90
23251;DHT22;11794;49.730;10.088;2022-10-17T07:25:26;14.50;99.90
23251;DHT22;11794;49.730;10.088;2022-10-17T07:27:52;14.70;99.90
23251;DHT22;11794;49.730;10.088;2022-10-17T07:30:19;14.80;99.90
23251;DHT22;11794;49.730;10.088;2022-10-17T07:32:44;15.00;99.90
23251;DHT22;11794;49.730;10.088;2022-10-17T07:35:11;15.30;99.90
23251;DHT22;11794;49.730;10.088;2022-10-17T07:37:37;15.60;99.90
23251;DHT22;11794;49.730;10.088;2022-10-17T07:40:04;16.40;99.90
23251;DHT22;11794;49.730;10.088;2022-10-17T07:42:31;17.60;99.90
23251;DHT22;11794;49.730;10.088;2022-10-17T07:44:57;18.80;99.90
23251;DHT22;11794;49.730;10.088;2022-10-17T07:47:22;20.00;99.90
23251;DHT22;11794;49.730;10.088;2022-10-17T07:49:48;20.60;99.90
23251;DHT22;11794;49.730;10.088;2022-10-17T07:52:14;21.20;99.90
23251;DHT22;11794;49.730;10.088;2022-10-17T07:54:40;21.40;99.90
23251;DHT22;11794;49.730;10.088;2022-10-17T07:57:06;21.60;99.90
23251;DHT22;11794;49.730;10.088;2022-10-17T07:59:32;22.50;99.90
23251;DHT22;11794;49.730;10.088;2022-10-17T08:01:58;23.10;99.90
23251;DHT22;11794;49.730;10.088;2022-10-17T08:04:24;22.60;99.90
23251;DHT22;11794;49.730;10.088;2022-10-17T08:06:50;22.50;99.90
23251;DHT22;11794;49.730;10.088;2022-10-17T08:09:16;23.20;99.90
23251;DHT22;11794;49.730;10.088;2022-10-17T08:11:42;23.90;99.90
23251;DHT22;11794;49.730;10.088;2022-10-17T08:14:11;23.70;99.90
23251;DHT22;11794;49.730;10.088;2022-10-17T08:16:38;23.80;99.90
23251;DHT22;11794;49.730;10.088;2022-10-17T08:19:04;24.30;99.90
23251;DHT22;11794;49.730;10.088;2022-10-17T08:21:29;24.40;99.90
23251;DHT22;11794;49.730;10.088;2022-10-17T08:23:55;24.20;99.90
23251;DHT22;11794;49.730;10.088;2022-10-17T08:26:21;24.40;99.90
23251;DHT22;11794;49.730;10.088;2022-10-17T08:28:47;24.10;99.90
23251;DHT22;11794;49.730;10.088;2022-10-17T08:31:17;23.70;99.90
23251;DHT22;11794;49.730;10.088;2022-10-17T08:33:43;24.10;99.90
23251;DHT22;11794;49.730;10.088;2022-10-17T08:36:11;24.70;99.90
23251;DHT22;11794;49.730;10.088;2022-10-17T08:38:37;25.00;99.90
23251;DHT22;11794;49.730;10.088;2022-10-17T08:41:10;25.20;99.90
23251;DHT22;11794;49.730;10.088;2022-10-17T08:43:55;25.50;99.90
23251;DHT22;11794;49.730;10.088;2022-10-17T08:46:29;26.00;99.90
23251;DHT22;11794;49.730;10.088;2022-10-17T08:48:58;26.00;99.90
23251;DHT22;11794;49.730;10.088;2022-10-17T08:51:28;26.20;99.90
23251;DHT22;11794;49.730;10.088;2022-10-17T08:54:19;26.90;99.90
23251;DHT22;11794;49.730;10.088;2022-10-17T08:56:51;27.30;99.90
23251;DHT22;11794;49.730;10.088;2022-10-17T08:59:25;27.30;99.90
23251;DHT22;11794;49.730;10.088;2022-10-17T09:02:02;27.30;99.90
23251;DHT22;11794;49.730;10.088;2022-10-17T09:04:40;27.40;99.90
23251;DHT22;11794;49.730;10.088;2022-10-17T09:16:51;28.00;99.90
23251;DHT22;11794;49.730;10.088;2022-10-17T09:21:46;27.70;99.90
23251;DHT22;11794;49.730;10.088;2022-10-17T09:24:27;27.90;99.90
23251;DHT22;11794;49.730;10.088;2022-10-17T09:26:55;28.10;99.90
23251;DHT22;11794;49.730;10.088;2022-10-17T09:29:23;28.00;99.90
23251;DHT22;11794;49.730;10.088;2022-10-17T09:32:02;28.40;99.90
23251;DHT22;11794;49.730;10.088;2022-10-17T09:34:31;28.80;99.90
23251;DHT22;11794;49.730;10.088;2022-10-17T09:36:58;28.90;99.90
23251;DHT22;11794;49.730;10.088;2022-10-17T09:39:24;29.20;99.90
23251;DHT22;11794;49.730;10.088;2022-10-17T09:41:56;29.50;99.90
23251;DHT22;11794;49.730;10.088;2022-10-17T09:44:31;29.30;99.90
23251;DHT22;11794;49.730;10.088;2022-10-17T09:47:27;29.50;99.90
23251;DHT22;11794;49.730;10.088;2022-10-17T09:49:54;29.50;99.90
23251;DHT22;11794;49.730;10.088;2022-10-17T09:52:39;29.70;99.90
23251;DHT22;11794;49.730;10.088;2022-10-17T09:55:31;30.00;99.90
23251;DHT22;11794;49.730;10.088;2022-10-17T09:57:59;30.30;99.90
23251;DHT22;11794;49.730;10.088;2022-10-17T10:00:28;30.80;99.90
23251;DHT22;11794;49.730;10.088;2022-10-17T10:06:03;30.60;99.90
23251;DHT22;11794;49.730;10.088;2022-10-17T10:08:53;30.60;99.90
23251;DHT22;11794;49.730;10.088;2022-10-17T10:11:42;30.10;99.90
23251;DHT22;11794;49.730;10.088;2022-10-17T10:14:18;29.80;99.90
23251;DHT22;11794;49.730;10.088;2022-10-17T10:16:46;29.50;99.90
23251;DHT22;11794;49.730;10.088;2022-10-17T10:19:34;29.70;99.90
23251;DHT22;11794;49.730;10.088;2022-10-17T10:22:02;29.10;99.90
23251;DHT22;11794;49.730;10.088;2022-10-17T10:24:29;28.90;99.90
23251;DHT22;11794;49.730;10.088;2022-10-17T10:26:57;28.20;99.90
23251;DHT22;11794;49.730;10.088;2022-10-17T10:29:31;28.00;99.90
23251;DHT22;11794;49.730;10.088;2022-10-17T10:32:17;27.70;99.90
23251;DHT22;11794;49.730;10.088;2022-10-17T10:34:54;27.70;99.90
23251;DHT22;11794;49.730;10.088;2022-10-17T10:37:24;26.70;99.90
23251;DHT22;11794;49.730;10.088;2022-10-17T10:39:56;27.30;99.90
23251;DHT22;11794;49.730;10.088;2022-10-17T10:44:52;28.70;99.90
23251;DHT22;11794;49.730;10.088;2022-10-17T10:47:26;29.30;99.90
23251;DHT22;11794;49.730;10.088;2022-10-17T10:50:17;29.40;99.90
23251;DHT22;11794;49.730;10.088;2022-10-17T10:55:55;30.70;99.90
23251;DHT22;11794;49.730;10.088;2022-10-17T10:58:25;30.30;99.90
23251;DHT22;11794;49.730;10.088;2022-10-17T11:00:53;30.70;99.90
23251;DHT22;11794;49.730;10.088;2022-10-17T11:03:30;30.80;99.90
23251;DHT22;11794;49.730;10.088;2022-10-17T11:06:13;31.00;99.90
23251;DHT22;11794;49.730;10.088;2022-10-17T11:08:50;31.50;99.90
23251;DHT22;11794;49.730;10.088;2022-10-17T11:11:26;31.80;99.70
23251;DHT22;11794;49.730;10.088;2022-10-17T11:14:17;32.30;99.30
23251;DHT22;11794;49.730;10.088;2022-10-17T11:16:56;32.50;98.90
23251;DHT22;11794;49.730;10.088;2022-10-17T11:19:39;32.30;98.60
23251;DHT22;11794;49.730;10.088;2022-10-17T11:22:27;32.50;98.00
23251;DHT22;11794;49.730;10.088;2022-10-17T11:24:58;32.30;97.80
23251;DHT22;11794;49.730;10.088;2022-10-17T11:27:27;32.70;99.20
23251;DHT22;11794;49.730;10.088;2022-10-17T11:29:53;31.70;98.30
23251;DHT22;11794;49.730;10.088;2022-10-17T11:35:02;31.10;99.40
23251;DHT22;11794;49.730;10.088;2022-10-17T11:37:33;31.50;98.80
23251;DHT22;11794;49.730;10.088;2022-10-17T11:40:31;32.40;98.10
23251;DHT22;11794;49.730;10.088;2022-10-17T11:43:04;32.10;98.60
23251;DHT22;11794;49.730;10.088;2022-10-17T11:45:34;32.40;99.40
23251;DHT22;11794;49.730;10.088;2022-10-17T11:48:13;33.00;97.90
23251;DHT22;11794;49.730;10.088;2022-10-17T11:50:48;32.70;97.70
23251;DHT22;11794;49.730;10.088;2022-10-17T11:53:24;33.20;97.80
23251;DHT22;11794;49.730;10.088;2022-10-17T11:55:52;33.90;97.20
23251;DHT22;11794;49.730;10.088;2022-10-17T12:01:06;33.90;97.10
23251;DHT22;11794;49.730;10.088;2022-10-17T12:03:58;34.50;97.60
23251;DHT22;11794;49.730;10.088;2022-10-17T12:11:58;35.40;95.30
23251;DHT22;11794;49.730;10.088;2022-10-17T12:14:42;36.10;94.10
23251;DHT22;11794;49.730;10.088;2022-10-17T12:17:28;36.20;95.40
23251;DHT22;11794;49.730;10.088;2022-10-17T12:23:01;36.60;94.20
23251;DHT22;11794;49.730;10.088;2022-10-17T12:25:28;36.60;92.90
23251;DHT22;11794;49.730;10.088;2022-10-17T12:28:14;37.20;92.30
23251;DHT22;11794;49.730;10.088;2022-10-17T12:49:25;37.30;91.20
23251;DHT22;11794;49.730;10.088;2022-10-17T12:52:26;37.20;90.80
23251;DHT22;11794;49.730;10.088;2022-10-17T13:00:16;35.70;92.40
23251;DHT22;11794;49.730;10.088;2022-10-17T13:02:43;35.80;92.40
23251;DHT22;11794;49.730;10.088;2022-10-17T13:05:28;36.20;91.10
23251;DHT22;11794;49.730;10.088;2022-10-17T13:07:56;36.50;91.30
23251;DHT22;11794;49.730;10.088;2022-10-17T13:10:28;36.30;91.00
23251;DHT22;11794;49.730;10.088;2022-10-17T13:13:06;35.90;91.60
23251;DHT22;11794;49.730;10.088;2022-10-17T13:15:35;36.60;91.10
23251;DHT22;11794;49.730;10.088;2022-10-17T13:18:01;37.00;90.00
23251;DHT22;11794;49.730;10.088;2022-10-17T13:20:29;37.50;90.00
23251;DHT22;11794;49.730;10.088;2022-10-17T13:22:56;36.90;87.00
23251;DHT22;11794;49.730;10.088;2022-10-17T13:25:23;36.20;88.80
23251;DHT22;11794;49.730;10.088;2022-10-17T13:27:49;36.00;90.60
23251;DHT22;11794;49.730;10.088;2022-10-17T13:32:49;35.70;90.00
23251;DHT22;11794;49.730;10.088;2022-10-17T13:35:21;36.10;87.40
23251;DHT22;11794;49.730;10.088;2022-10-17T13:37:48;35.90;89.10
23251;DHT22;11794;49.730;10.088;2022-10-17T13:40:20;35.70;89.50
23251;DHT22;11794;49.730;10.088;2022-10-17T13:42:47;35.30;88.80
23251;DHT22;11794;49.730;10.088;2022-10-17T13:45:27;35.30;88.40
23251;DHT22;11794;49.730;10.088;2022-10-17T13:47:53;35.60;89.10
23251;DHT22;11794;49.730;10.088;2022-10-17T13:50:31;35.70;89.10
23251;DHT22;11794;49.730;10.088;2022-10-17T13:53:23;35.30;89.40
23251;DHT22;11794;49.730;10.088;2022-10-17T13:58:46;34.50;88.30
23251;DHT22;11794;49.730;10.088;2022-10-17T14:01:12;34.10;87.80
23251;DHT22;11794;49.730;10.088;2022-10-17T14:03:40;33.30;87.30
23251;DHT22;11794;49.730;10.088;2022-10-17T14:06:21;33.00;89.60
23251;DHT22;11794;49.730;10.088;2022-10-17T14:08:59;32.60;90.00
23251;DHT22;11794;49.730;10.088;2022-10-17T14:11:36;31.60;90.50
23251;DHT22;11794;49.730;10.088;2022-10-17T14:14:05;31.10;91.80
23251;DHT22;11794;49.730;10.088;2022-10-17T14:16:39;30.60;92.30
23251;DHT22;11794;49.730;10.088;2022-10-17T14:19:35;30.70;92.10
23251;DHT22;11794;49.730;10.088;2022-10-17T14:24:50;30.40;92.30
23251;DHT22;11794;49.730;10.088;2022-10-17T14:27:31;29.80;92.50
23251;DHT22;11794;49.730;10.088;2022-10-17T14:30:04;29.20;93.30
23251;DHT22;11794;49.730;10.088;2022-10-17T14:32:34;28.40;94.60
23251;DHT22;11794;49.730;10.088;2022-10-17T14:35:01;27.80;95.70
23251;DHT22;11794;49.730;10.088;2022-10-17T14:37:41;27.20;95.10
23251;DHT22;11794;49.730;10.088;2022-10-17T14:42:40;26.80;96.50
23251;DHT22;11794;49.730;10.088;2022-10-17T14:45:10;26.50;96.70
23251;DHT22;11794;49.730;10.088;2022-10-17T14:47:36;26.10;97.70
23251;DHT22;11794;49.730;10.088;2022-10-17T14:50:27;25.80;98.40
23251;DHT22;11794;49.730;10.088;2022-10-17T14:53:00;25.60;99.30
23251;DHT22;11794;49.730;10.088;2022-10-17T14:55:28;25.60;99.20
23251;DHT22;11794;49.730;10.088;2022-10-17T14:57:54;25.40;99.40
23251;DHT22;11794;49.730;10.088;2022-10-17T15:00:21;25.20;99.80
23251;DHT22;11794;49.730;10.088;2022-10-17T15:02:48;25.10;99.90
23251;DHT22;11794;49.730;10.088;2022-10-17T15:05:14;25.00;99.90
23251;DHT22;11794;49.730;10.088;2022-10-17T15:07:40;25.10;99.90
23251;DHT22;11794;49.730;10.088;2022-10-17T15:10:26;25.20;99.90
23251;DHT22;11794;49.730;10.088;2022-10-17T15:12:52;25.00;99.90
23251;DHT22;11794;49.730;10.088;2022-10-17T15:15:18;24.70;99.90
23251;DHT22;11794;49.730;10.088;2022-10-17T15:17:43;25.00;99.90
23251;DHT22;11794;49.730;10.088;2022-10-17T15:20:13;25.60;99.90
23251;DHT22;11794;49.730;10.088;2022-10-17T15:22:40;25.90;99.90
23251;DHT22;11794;49.730;10.088;2022-10-17T15:25:06;25.80;99.90
23251;DHT22;11794;49.730;10.088;2022-10-17T15:27:32;25.30;99.90
23251;DHT22;11794;49.730;10.088;2022-10-17T15:29:57;24.60;99.90
23251;DHT22;11794;49.730;10.088;2022-10-17T15:32:23;24.40;99.90
23251;DHT22;11794;49.730;10.088;2022-10-17T15:34:48;24.00;99.90
23251;DHT22;11794;49.730;10.088;2022-10-17T15:37:24;23.80;99.90
23251;DHT22;11794;49.730;10.088;2022-10-17T15:39:52;23.60;99.90
23251;DHT22;11794;49.730;10.088;2022-10-17T15:42:25;23.50;99.90
23251;DHT22;11794;49.730;10.088;2022-10-17T15:44:51;23.10;99.90
23251;DHT22;11794;49.730;10.088;2022-10-17T15:47:24;23.00;99.90
23251;DHT22;11794;49.730;10.088;2022-10-17T15:49:51;22.80;99.90
23251;DHT22;11794;49.730;10.088;2022-10-17T15:52:17;22.60;99.90
23251;DHT22;11794;49.730;10.088;2022-10-17T15:54:42;22.50;99.90
23251;DHT22;11794;49.730;10.088;2022-10-17T15:57:16;22.30;99.90
23251;DHT22;11794;49.730;10.088;2022-10-17T15:59:42;22.00;99.90
23251;DHT22;11794;49.730;10.088;2022-10-17T16:02:12;21.90;99.90
23251;DHT22;11794;49.730;10.088;2022-10-17T16:04:38;21.80;99.90
23251;DHT22;11794;49.730;10.088;2022-10-17T16:07:04;21.70;99.90
23251;DHT22;11794;49.730;10.088;2022-10-17T16:09:29;21.60;99.90
23251;DHT22;11794;49.730;10.088;2022-10-17T16:11:55;21.60;99.90
23251;DHT22;11794;49.730;10.088;2022-10-17T16:14:20;21.40;99.90
23251;DHT22;11794;49.730;10.088;2022-10-17T16:16:46;21.30;99.90
23251;DHT22;11794;49.730;10.088;2022-10-17T16:19:11;21.30;99.90
23251;DHT22;11794;49.730;10.088;2022-10-17T16:21:39;21.10;99.90
23251;DHT22;11794;49.730;10.088;2022-10-17T16:24:05;21.00;99.90
23251;DHT22;11794;49.730;10.088;2022-10-17T16:26:31;20.90;99.90
23251;DHT22;11794;49.730;10.088;2022-10-17T16:28:57;20.90;99.90
23251;DHT22;11794;49.730;10.088;2022-10-17T16:31:34;20.80;99.90
23251;DHT22;11794;49.730;10.088;2022-10-17T16:34:02;20.70;99.90
23251;DHT22;11794;49.730;10.088;2022-10-17T16:36:28;20.60;99.90
23251;DHT22;11794;49.730;10.088;2022-10-17T16:38:53;20.60;99.90
23251;DHT22;11794;49.730;10.088;2022-10-17T16:41:25;20.50;99.90
23251;DHT22;11794;49.730;10.088;2022-10-17T16:43:52;20.40;99.90
23251;DHT22;11794;49.730;10.088;2022-10-17T16:46:19;20.30;99.90
23251;DHT22;11794;49.730;10.088;2022-10-17T16:48:45;20.30;99.90
23251;DHT22;11794;49.730;10.088;2022-10-17T16:51:12;20.20;99.90
23251;DHT22;11794;49.730;10.088;2022-10-17T16:53:38;20.10;99.90
23251;DHT22;11794;49.730;10.088;2022-10-17T16:56:12;20.10;99.90
23251;DHT22;11794;49.730;10.088;2022-10-17T16:58:39;20.00;99.90
23251;DHT22;11794;49.730;10.088;2022-10-17T17:01:08;19.90;99.90
23251;DHT22;11794;49.730;10.088;2022-10-17T17:03:35;19.80;99.90
23251;DHT22;11794;49.730;10.088;2022-10-17T17:06:01;19.70;99.90
23251;DHT22;11794;49.730;10.088;2022-10-17T17:08:27;19.60;99.90